Time;durP1;ratioP1;P1;durP2;ratioP2;P2;SDS_P1;SDS_P2;PMS_P1;PMS_P2;Temp;Humidity;BMP_temperature;BMP_pressure;BME280_temperature;BME280_humidity;BME280_pressure;Samples;Min_cycle;Max_cycle;Signal;HPM_P1;HPM_P2
2022/03/14 00:02:42;;;;;;;26.75;21.95;;;;;;;2.16;60.91;102321.09;4992184;28;20165;-72
2022/03/14 00:05:10;;;;;;;26.13;17.42;;;;;;;2.06;60.62;102316.97;4998430;28;20026;-73
2022/03/14 00:07:36;;;;;;;34.63;22.27;;;;;;;1.84;61.35;102309.50;5007119;28;20032;-73
2022/03/14 00:10:03;;;;;;;31.55;22.40;;;;;;;2.12;61.25;102322.56;4990504;28;20394;-74
2022/03/14 00:12:31;;;;;;;27.95;14.80;;;;;;;1.85;62.21;102316.47;4992164;28;20038;-74
2022/03/14 00:14:58;;;;;;;28.83;21.35;;;;;;;1.77;61.94;102315.97;4993794;28;20030;-74
2022/03/14 00:17:25;;;;;;;24.08;18.95;;;;;;;1.61;62.59;102306.28;4992358;28;20035;-74
2022/03/14 00:19:51;;;;;;;26.95;19.77;;;;;;;1.63;62.06;102320.22;4990789;28;20022;-73
2022/03/14 00:22:19;;;;;;;29.30;21.23;;;;;;;1.66;61.57;102314.34;4991660;28;20044;-76
2022/03/14 00:24:45;;;;;;;22.25;12.88;;;;;;;1.62;61.33;102325.31;4990740;28;20057;-74
2022/03/14 00:27:10;;;;;;;26.42;19.15;;;;;;;1.39;61.78;102327.22;4990684;28;20034;-73
2022/03/14 00:29:36;;;;;;;28.38;20.92;;;;;;;1.24;62.66;102313.25;4990948;28;20035;-74
2022/03/14 00:32:01;;;;;;;22.00;13.77;;;;;;;1.28;62.32;102325.59;4990706;28;20018;-73
2022/03/14 00:34:27;;;;;;;24.58;15.23;;;;;;;1.45;61.44;102338.00;5010882;28;20022;-74
2022/03/14 00:40:34;;;;;;;24.52;13.82;;;;;;;1.57;60.74;102329.25;5010847;28;20044;-74
2022/03/14 00:43:29;;;;;;;20.35;13.32;;;;;;;1.48;61.12;102332.16;5009738;28;20092;-74
2022/03/14 00:59:20;;;;;;;21.83;14.07;;;;;;;1.87;60.68;102339.09;4973020;28;20062;-74
2022/03/14 01:01:47;;;;;;;29.67;20.85;;;;;;;1.55;61.61;102330.88;4999510;28;20454;-75
2022/03/14 01:04:12;;;;;;;26.77;16.27;;;;;;;1.68;61.65;102318.84;5016618;28;20137;-74
2022/03/14 01:07:05;;;;;;;27.83;20.50;;;;;;;1.79;61.84;102341.97;4999169;28;20418;-74
2022/03/14 01:12:52;;;;;;;22.73;16.02;;;;;;;1.64;62.44;102323.72;4995061;28;20101;-74
2022/03/14 01:15:18;;;;;;;32.67;22.10;;;;;;;1.56;63.03;102330.06;4994412;28;20038;-73
2022/03/14 01:17:44;;;;;;;20.73;14.00;;;;;;;1.96;61.74;102343.97;4996227;28;20045;-74
2022/03/14 01:23:30;;;;;;;40.70;21.50;;;;;;;2.32;61.48;102332.53;4993394;28;20383;-74
2022/03/14 01:25:56;;;;;;;26.55;16.17;;;;;;;2.26;60.46;102326.94;4993511;28;20022;-74
2022/03/14 01:28:21;;;;;;;51.00;22.83;;;;;;;1.98;61.78;102344.06;4994260;28;20490;-75
2022/03/14 01:37:31;;;;;;;24.27;21.23;;;;;;;2.01;64.00;102336.50;4996851;28;20578;-75
2022/03/14 01:39:57;;;;;;;27.83;18.38;;;;;;;1.38;64.87;102345.22;4993235;28;20096;-74
2022/03/14 01:42:22;;;;;;;24.90;19.13;;;;;;;1.98;63.01;102332.03;4994101;28;20042;-74
2022/03/14 01:44:48;;;;;;;28.52;20.40;;;;;;;2.18;61.94;102350.53;4994665;28;20386;-74
2022/03/14 01:54:24;;;;;;;20.42;14.75;;;;;;;2.33;60.93;102356.72;4992982;28;20540;-74
2022/03/14 02:03:34;;;;;;;23.60;18.00;;;;;;;1.95;63.46;102372.34;4996004;28;20049;-75
2022/03/14 02:06:00;;;;;;;18.42;14.68;;;;;;;1.74;62.89;102356.28;4992690;28;20359;-74
2022/03/14 02:08:25;;;;;;;23.65;17.92;;;;;;;1.46;62.80;102373.41;4983701;28;20131;-74
2022/03/14 02:14:12;;;;;;;19.10;14.02;;;;;;;1.25;62.29;102372.84;4977075;28;20097;-74
2022/03/14 02:16:54;;;;;;;23.70;18.77;;;;;;;2.11;60.01;102382.94;4977658;28;20023;-74
2022/03/14 02:19:20;;;;;;;24.63;19.38;;;;;;;1.99;60.30;102384.69;4976438;28;20031;-74
2022/03/14 02:21:45;;;;;;;28.73;14.55;;;;;;;1.91;60.72;102379.00;4976137;28;20050;-74
2022/03/14 02:24:11;;;;;;;26.60;19.70;;;;;;;1.75;62.06;102374.47;4976000;28;20043;-73
2022/03/14 02:26:41;;;;;;;22.92;18.90;;;;;;;2.04;61.12;102385.91;4976014;28;20494;-74
2022/03/14 02:29:07;;;;;;;28.25;18.75;;;;;;;1.39;62.89;102371.19;4975687;28;20082;-73
2022/03/14 02:38:16;;;;;;;31.92;22.20;;;;;;;1.64;62.08;102391.00;5014979;28;20438;-73
2022/03/14 02:40:46;;;;;;;29.98;17.65;;;;;;;1.70;61.37;102394.00;5014951;28;20112;-73
2022/03/14 02:43:16;;;;;;;29.10;20.85;;;;;;;1.53;62.55;102386.78;5014412;28;20034;-74
2022/03/14 02:49:08;;;;;;;24.83;15.60;;;;;;;2.18;62.03;102391.97;5014888;28;20042;-74
2022/03/14 02:51:38;;;;;;;17.73;14.45;;;;;;;2.13;61.91;102380.44;5014507;28;20108;-75
2022/03/14 02:54:06;;;;;;;22.88;13.82;;;;;;;2.16;62.69;102394.50;5012081;28;20041;-74
2022/03/14 02:56:36;;;;;;;29.75;21.70;;;;;;;1.97;63.22;102394.06;5014127;28;20105;-74
2022/03/14 02:59:03;;;;;;;26.65;18.23;;;;;;;2.27;63.42;102410.72;5014820;28;20414;-74
2022/03/14 03:01:28;;;;;;;29.40;20.33;;;;;;;2.04;62.68;102398.88;5013618;28;20028;-74
2022/03/14 03:03:54;;;;;;;32.67;22.15;;;;;;;1.87;63.15;102410.66;5000717;28;20038;-74
2022/03/14 03:06:23;;;;;;;23.63;19.35;;;;;;;2.24;61.56;102406.22;4994121;28;21083;-74
2022/03/14 03:08:49;;;;;;;26.60;19.42;;;;;;;2.13;61.88;102414.09;4994731;28;20100;-74
2022/03/14 03:14:36;;;;;;;26.42;20.90;;;;;;;2.47;61.61;102417.22;4994711;28;20040;-74
2022/03/14 03:17:02;;;;;;;31.02;15.25;;;;;;;2.04;62.85;102411.81;4991670;28;20027;-74
2022/03/14 03:19:28;;;;;;;25.05;13.85;;;;;;;1.98;62.22;102427.81;4995054;28;20014;-74
2022/03/14 03:28:37;;;;;;;23.77;20.05;;;;;;;1.88;63.27;102438.34;4995290;28;20045;-74
2022/03/14 03:31:08;;;;;;;28.33;18.20;;;;;;;1.98;62.58;102432.97;4993973;28;20042;-74
2022/03/14 03:33:34;;;;;;;16.30;14.10;;;;;;;1.84;63.19;102436.34;4994269;28;20057;-74
2022/03/14 03:42:43;;;;;;;28.42;21.80;;;;;;;1.69;62.89;102421.56;4994140;28;20129;-75
2022/03/14 03:45:09;;;;;;;26.95;17.55;;;;;;;1.78;62.06;102443.66;4993522;28;20122;-75
2022/03/14 03:47:34;;;;;;;28.58;19.98;;;;;;;1.62;62.32;102442.63;4993857;28;20224;-75
2022/03/14 03:53:22;;;;;;;22.92;13.68;;;;;;;1.98;61.90;102451.09;4994157;28;20509;-75
2022/03/14 03:55:47;;;;;;;19.48;13.30;;;;;;;1.93;61.50;102443.84;4994158;28;20022;-75
2022/03/14 03:58:12;;;;;;;22.38;17.10;;;;;;;1.72;61.95;102446.75;4992927;28;20528;-73
2022/03/14 04:00:40;;;;;;;23.55;19.08;;;;;;;2.10;60.51;102457.09;4993257;28;20455;-74
2022/03/14 04:03:05;;;;;;;26.25;17.75;;;;;;;1.95;62.41;102466.44;4993154;28;20073;-74
2022/03/14 04:05:31;;;;;;;27.60;15.57;;;;;;;2.03;61.11;102457.50;4993387;28;20087;-74
2022/03/14 04:08:00;;;;;;;26.38;17.98;;;;;;;2.35;60.00;102452.69;4988550;28;20575;-73
2022/03/14 04:17:08;;;;;;;29.80;21.35;;;;;;;2.05;61.77;102478.31;4974784;28;20038;-73
2022/03/14 04:19:36;;;;;;;23.63;14.32;;;;;;;2.15;61.50;102466.88;4974829;28;20030;-73
2022/03/14 04:22:02;;;;;;;30.70;21.60;;;;;;;2.35;61.28;102484.66;4974371;28;20070;-73
2022/03/14 04:24:27;;;;;;;29.88;22.90;;;;;;;2.11;63.48;102486.50;4986671;28;20498;-73
2022/03/14 04:26:53;;;;;;;30.38;22.40;;;;;;;1.95;62.72;102481.97;4993672;28;20043;-74
2022/03/14 04:29:18;;;;;;;23.35;16.40;;;;;;;1.94;63.06;102481.84;4993708;28;20053;-73
2022/03/14 04:31:44;;;;;;;33.05;22.67;;;;;;;1.78;63.62;102486.00;4993901;28;20121;-73
2022/03/14 04:37:32;;;;;;;31.83;19.65;;;;;;;1.74;63.12;102478.81;4994874;28;20046;-74
2022/03/14 04:39:58;;;;;;;28.27;19.85;;;;;;;1.88;62.90;102474.59;4993711;28;20038;-74
2022/03/14 04:42:23;;;;;;;24.20;14.98;;;;;;;1.46;63.70;102478.56;4993580;28;20478;-73
2022/03/14 04:44:49;;;;;;;31.35;22.65;;;;;;;1.87;63.23;102489.22;4993613;28;20494;-73
2022/03/14 04:47:16;;;;;;;29.88;21.13;;;;;;;2.07;63.14;102497.44;4991925;28;20109;-74
2022/03/14 04:49:42;;;;;;;33.35;22.08;;;;;;;1.99;62.83;102493.41;4993455;28;20022;-73
2022/03/14 04:52:08;;;;;;;25.20;15.32;;;;;;;2.38;61.46;102500.41;4992273;28;20052;-74
2022/03/14 05:08:02;;;;;;;29.95;21.95;;;;;;;2.88;60.80;102509.72;4993735;28;20132;-76
2022/03/14 05:10:50;;;;;;;31.77;22.63;;;;;;;2.99;61.06;102520.78;4977343;28;20066;-76
2022/03/14 05:16:37;;;;;;;27.52;22.83;;;;;;;3.12;60.51;102538.94;4993828;28;20073;-76
2022/03/14 05:19:03;;;;;;;34.28;22.52;;;;;;;3.03;59.67;102538.34;4992881;28;20069;-75
2022/03/14 05:21:29;;;;;;;40.03;22.80;;;;;;;3.11;58.70;102532.88;4991679;28;20034;-76
2022/03/14 05:23:54;;;;;;;39.85;23.70;;;;;;;3.19;58.51;102535.94;4992687;28;20489;-74
2022/03/14 05:36:15;;;;;;;40.92;19.50;;;;;;;3.39;56.86;102534.63;4996309;28;20053;-74
2022/03/14 05:38:40;;;;;;;35.22;20.48;;;;;;;3.56;57.03;102551.28;4996142;28;20034;-74
2022/03/14 05:41:06;;;;;;;36.97;22.42;;;;;;;3.60;56.27;102548.03;4994235;28;20033;-75
2022/03/14 05:43:36;;;;;;;34.80;22.10;;;;;;;3.55;56.14;102558.13;4995075;28;20054;-75
2022/03/14 05:46:04;;;;;;;30.65;22.42;;;;;;;3.14;56.88;102561.59;4996089;28;20078;-75
2022/03/14 05:48:31;;;;;;;37.08;21.75;;;;;;;3.43;57.28;102559.06;5011225;28;20045;-75
2022/03/14 05:54:43;;;;;;;33.00;21.55;;;;;;;3.76;56.55;102561.19;4995750;28;20590;-75
2022/03/14 05:57:09;;;;;;;44.38;24.02;;;;;;;3.43;55.99;102562.56;4992833;28;20046;-74
2022/03/14 05:59:34;;;;;;;50.13;24.08;;;;;;;3.79;55.57;102569.19;4985842;28;20037;-75
2022/03/14 06:02:01;;;;;;;27.90;19.65;;;;;;;3.36;56.37;102576.84;4989591;28;20458;-75
2022/03/14 06:04:26;;;;;;;33.35;23.80;;;;;;;3.27;57.05;102570.16;4990227;28;20040;-75
2022/03/14 06:06:53;;;;;;;32.05;22.98;;;;;;;3.11;56.92;102568.25;4988786;28;20227;-75
2022/03/14 06:09:19;;;;;;;39.60;23.27;;;;;;;3.40;56.78;102577.94;4990632;28;20066;-74
2022/03/14 06:11:45;;;;;;;30.58;21.63;;;;;;;3.57;55.79;102566.03;5004513;28;20074;-75
2022/03/14 06:14:12;;;;;;;28.20;22.20;;;;;;;2.81;58.03;102587.88;5000555;28;20022;-75
2022/03/14 06:16:38;;;;;;;28.13;22.02;;;;;;;2.71;58.15;102584.69;4990371;28;20116;-74
2022/03/14 06:19:04;;;;;;;31.70;22.70;;;;;;;2.98;58.15;102591.63;4986733;28;20073;-74
2022/03/14 06:21:34;;;;;;;31.40;22.42;;;;;;;3.17;56.98;102597.22;4977317;28;20038;-74
2022/03/14 06:24:00;;;;;;;34.53;22.58;;;;;;;3.20;57.15;102596.50;4991403;28;20486;-74
2022/03/14 06:26:25;;;;;;;32.83;22.80;;;;;;;3.12;57.36;102590.84;5005759;28;20045;-74
2022/03/14 06:28:51;;;;;;;32.08;21.25;;;;;;;3.16;57.20;102604.09;4990247;28;20382;-74
2022/03/14 06:31:16;;;;;;;31.95;23.38;;;;;;;3.38;57.30;102613.28;4989510;28;20470;-74
2022/03/14 06:33:42;;;;;;;31.23;22.80;;;;;;;3.42;56.40;102603.97;4987455;28;20035;-74
2022/03/14 06:36:07;;;;;;;37.20;22.08;;;;;;;3.55;56.55;102616.94;4985201;28;20095;-73
2022/03/14 06:38:35;;;;;;;33.03;21.08;;;;;;;3.12;57.44;102602.09;4986994;28;20401;-73
2022/03/14 06:41:02;;;;;;;25.38;18.42;;;;;;;2.87;58.33;102609.03;5008860;28;20123;-75
2022/03/14 06:43:29;;;;;;;32.78;20.27;;;;;;;2.99;58.00;102622.81;4978561;28;20058;-75
2022/03/14 06:45:55;;;;;;;25.42;19.83;;;;;;;2.72;58.02;102615.00;4987665;28;20139;-75
2022/03/14 06:48:21;;;;;;;32.70;18.35;;;;;;;2.93;58.27;102630.22;4984780;28;20499;-74
2022/03/14 06:50:46;;;;;;;30.65;17.95;;;;;;;2.78;58.43;102626.56;4980696;28;20503;-76
2022/03/14 06:53:12;;;;;;;24.33;18.40;;;;;;;2.82;58.71;102621.69;5000206;28;20029;-73
2022/03/14 06:55:37;;;;;;;25.58;19.48;;;;;;;2.63;59.42;102609.19;4977334;28;20080;-75
2022/03/14 06:58:03;;;;;;;21.92;13.00;;;;;;;2.92;58.63;102618.91;4970024;28;20070;-73
2022/03/14 07:00:29;;;;;;;25.40;19.67;;;;;;;3.11;57.89;102615.88;4972195;28;20034;-76
2022/03/14 07:02:54;;;;;;;27.15;19.38;;;;;;;3.03;57.70;102627.41;4972968;28;20117;-75
2022/03/14 07:05:23;;;;;;;28.25;20.73;;;;;;;2.95;58.35;102624.31;4968502;28;20133;-75
2022/03/14 07:07:50;;;;;;;24.95;20.33;;;;;;;3.06;58.22;102627.63;5012716;28;20034;-75
2022/03/14 07:10:16;;;;;;;30.20;13.32;;;;;;;3.04;58.83;102629.19;4987145;28;20042;-74
2022/03/14 07:12:48;;;;;;;28.35;19.02;;;;;;;3.18;58.36;102630.13;4979895;28;20522;-74
2022/03/14 07:15:16;;;;;;;22.00;14.10;;;;;;;3.32;57.39;102633.63;4988252;28;20552;-75
2022/03/14 07:17:42;;;;;;;34.17;18.63;;;;;;;3.59;57.36;102617.25;4988847;28;20041;-74
2022/03/14 07:20:10;;;;;;;33.88;20.58;;;;;;;3.75;57.02;102632.09;4982665;28;20601;-75
2022/03/14 07:22:52;;;;;;;28.30;16.40;;;;;;;3.34;57.65;102634.63;4986345;28;20466;-75
2022/03/14 07:25:19;;;;;;;28.85;19.60;;;;;;;3.47;58.01;102641.53;4983892;28;20046;-74
2022/03/14 07:27:44;;;;;;;42.75;24.58;;;;;;;3.46;57.03;102626.72;4983987;28;20046;-80
2022/03/14 07:30:10;;;;;;;34.92;23.45;;;;;;;3.65;56.39;102644.38;4990228;28;20046;-80
2022/03/14 07:32:36;;;;;;;52.92;32.20;;;;;;;3.32;57.49;102625.84;4976511;28;20378;-81
2022/03/14 07:35:04;;;;;;;39.15;27.92;;;;;;;3.68;57.22;102640.31;4990641;28;20034;-88
2022/03/14 07:37:30;;;;;;;38.35;22.05;;;;;;;3.44;56.69;102637.03;4997228;28;20089;-89
2022/03/14 07:39:55;;;;;;;37.03;26.70;;;;;;;3.36;56.82;102646.91;4999061;28;20050;-78
2022/03/14 07:42:21;;;;;;;29.83;22.45;;;;;;;3.44;56.74;102646.50;4984444;28;20046;-78
2022/03/14 07:44:46;;;;;;;41.83;30.38;;;;;;;3.46;57.49;102634.53;4979226;28;20186;-78
2022/03/14 07:47:13;;;;;;;33.05;22.35;;;;;;;4.12;55.76;102651.69;4986413;28;20490;-75
2022/03/14 07:49:39;;;;;;;26.92;17.67;;;;;;;4.36;54.83;102658.41;4989991;28;20045;-77
2022/03/14 07:52:06;;;;;;;30.15;20.20;;;;;;;4.24;55.23;102649.88;4974781;28;20055;-76
2022/03/14 07:54:32;;;;;;;20.70;16.05;;;;;;;4.15;56.04;102642.41;4985715;28;20046;-76
2022/03/14 07:56:57;;;;;;;29.38;19.35;;;;;;;4.06;55.93;102660.00;4987613;28;20038;-74
2022/03/14 07:59:23;;;;;;;28.08;19.20;;;;;;;3.90;56.62;102662.44;4986101;28;20529;-77
2022/03/14 08:01:48;;;;;;;39.03;20.50;;;;;;;3.79;56.42;102664.34;4987627;28;20057;-77
2022/03/14 08:04:14;;;;;;;31.98;23.05;;;;;;;4.22;56.89;102673.16;5003120;28;20096;-75
2022/03/14 08:06:42;;;;;;;26.00;21.10;;;;;;;3.94;56.47;102665.31;4987469;28;20042;-76
2022/03/14 08:09:30;;;;;;;28.88;19.15;;;;;;;4.09;55.38;102664.50;4989000;28;20045;-77
2022/03/14 08:11:58;;;;;;;26.40;19.27;;;;;;;4.14;55.06;102668.28;4986761;28;20046;-75
2022/03/14 08:14:24;;;;;;;43.00;22.83;;;;;;;4.24;55.73;102665.47;4986784;28;20108;-78
2022/03/14 08:16:49;;;;;;;34.75;23.10;;;;;;;4.15;56.28;102655.38;4992156;28;20030;-77
2022/03/14 08:19:15;;;;;;;28.77;22.30;;;;;;;4.22;56.46;102667.06;5003057;28;20066;-79
2022/03/14 08:21:40;;;;;;;36.88;21.98;;;;;;;4.23;56.04;102656.75;4983374;28;20192;-74
2022/03/14 08:24:06;;;;;;;25.85;15.43;;;;;;;4.20;53.85;102653.97;4976801;28;20035;-77
2022/03/14 08:26:33;;;;;;;21.58;17.27;;;;;;;4.41;53.41;102677.78;4984151;28;20047;-76
2022/03/14 08:28:59;;;;;;;22.98;15.18;;;;;;;4.26;53.22;102671.66;4987534;28;20475;-77
2022/03/14 08:31:25;;;;;;;21.90;16.60;;;;;;;4.40;52.86;102665.59;4996813;28;20096;-79
2022/03/14 08:33:51;;;;;;;38.55;17.60;;;;;;;4.60;53.02;102677.22;4992236;28;20510;-81
2022/03/14 08:36:20;;;;;;;41.13;19.33;;;;;;;4.41;53.37;102658.69;4982629;28;20046;-76
2022/03/14 08:38:47;;;;;;;21.77;16.92;;;;;;;4.78;53.21;102648.81;4987270;28;20043;-76
2022/03/14 08:41:15;;;;;;;23.23;16.58;;;;;;;4.47;53.38;102664.25;4975512;28;20027;-78
2022/03/14 08:43:41;;;;;;;24.77;18.40;;;;;;;5.11;52.69;102667.25;4979905;28;20042;-77
2022/03/14 08:46:06;;;;;;;22.50;16.77;;;;;;;4.57;53.05;102664.03;4981353;28;20047;-81
2022/03/14 08:48:32;;;;;;;25.52;16.02;;;;;;;4.93;51.85;102655.75;4986879;28;20038;-80
2022/03/14 08:50:58;;;;;;;21.17;14.32;;;;;;;4.59;51.28;102654.63;4985098;28;20050;-76
2022/03/14 08:53:23;;;;;;;29.85;15.65;;;;;;;5.14;51.19;102646.59;4981498;28;20050;-83
2022/03/14 08:55:48;;;;;;;31.48;18.05;;;;;;;4.43;52.53;102665.78;4976124;28;20122;-76
2022/03/14 08:58:14;;;;;;;23.33;17.08;;;;;;;4.75;52.72;102664.25;4983831;28;20462;-84
2022/03/14 09:00:40;;;;;;;23.40;16.40;;;;;;;4.62;51.75;102654.81;4998401;28;20058;-77
2022/03/14 09:03:06;;;;;;;20.40;15.85;;;;;;;4.81;50.43;102645.50;4986026;28;20523;-77
2022/03/14 09:05:32;;;;;;;22.17;15.13;;;;;;;5.13;49.87;102651.69;4990884;28;20043;-84
2022/03/14 09:07:57;;;;;;;21.00;15.13;;;;;;;4.82;50.52;102649.88;4992463;28;20332;-82
2022/03/14 09:10:23;;;;;;;20.83;16.40;;;;;;;5.03;49.14;102638.19;4977954;28;20035;-79
2022/03/14 09:12:49;;;;;;;33.92;17.00;;;;;;;5.59;49.54;102644.81;4986523;28;20062;-76
2022/03/14 09:15:15;;;;;;;24.00;17.77;;;;;;;5.22;49.53;102637.53;4980151;28;20498;-76
2022/03/14 09:17:59;;;;;;;22.83;16.75;;;;;;;5.91;48.44;102630.09;4984250;28;20157;-75
2022/03/14 09:20:27;;;;;;;26.27;17.65;;;;;;;6.28;48.05;102637.34;4989235;28;20046;-75
2022/03/14 09:22:53;;;;;;;23.38;16.58;;;;;;;5.65;47.60;102637.34;4990773;28;20110;-75
2022/03/14 09:25:20;;;;;;;31.20;15.27;;;;;;;5.44;48.20;102642.25;4973650;28;20051;-74
2022/03/14 09:27:46;;;;;;;20.13;15.80;;;;;;;5.34;48.23;102649.44;4997154;28;20107;-74
2022/03/14 09:30:13;;;;;;;20.10;16.35;;;;;;;5.03;48.84;102645.06;4990959;28;20043;-73
2022/03/14 09:32:39;;;;;;;25.27;16.25;;;;;;;5.19;50.35;102633.84;4989611;28;20034;-75
2022/03/14 09:35:08;;;;;;;25.00;19.00;;;;;;;5.52;49.38;102649.59;4989364;28;20049;-74
2022/03/14 09:37:36;;;;;;;31.52;16.65;;;;;;;5.62;48.38;102649.28;4989924;28;20054;-75
2022/03/14 09:40:05;;;;;;;19.80;16.20;;;;;;;5.68;48.24;102634.91;4975157;28;20041;-73
2022/03/14 09:42:37;;;;;;;19.58;15.25;;;;;;;6.32;47.85;102645.41;4984367;28;20038;-74
2022/03/14 09:45:04;;;;;;;18.33;14.35;;;;;;;6.61;46.27;102651.25;4987764;28;20112;-73
2022/03/14 09:47:35;;;;;;;20.50;13.35;;;;;;;5.81;46.23;102643.44;4979570;28;20038;-75
2022/03/14 09:50:04;;;;;;;19.02;14.85;;;;;;;6.41;45.77;102647.59;4986438;28;20052;-74
2022/03/14 09:52:31;;;;;;;23.45;16.08;;;;;;;5.48;48.00;102646.84;4990753;28;20030;-75
2022/03/14 09:54:58;;;;;;;21.20;16.48;;;;;;;6.30;46.52;102633.09;4981080;28;20035;-74
2022/03/14 09:57:24;;;;;;;22.35;16.77;;;;;;;6.83;46.54;102640.19;4978481;28;20635;-74
2022/03/14 09:59:50;;;;;;;32.25;15.73;;;;;;;6.38;45.80;102626.56;4979479;28;20047;-74
2022/03/14 10:02:16;;;;;;;22.00;15.05;;;;;;;6.08;46.23;102628.44;4980368;28;20042;-74
2022/03/14 10:04:41;;;;;;;20.85;16.00;;;;;;;6.58;46.13;102634.53;4990061;28;20497;-74
2022/03/14 10:07:07;;;;;;;20.10;15.85;;;;;;;6.78;46.15;102628.63;4988679;28;20042;-73
2022/03/14 10:09:36;;;;;;;25.13;16.77;;;;;;;6.02;47.33;102621.19;4989126;28;20050;-74
2022/03/14 10:12:04;;;;;;;20.60;14.88;;;;;;;6.16;48.17;102614.13;4985825;28;20047;-73
2022/03/14 10:14:29;;;;;;;22.30;15.98;;;;;;;5.85;48.27;102617.63;4980195;28;20090;-72
2022/03/14 10:16:56;;;;;;;25.48;17.13;;;;;;;6.31;46.56;102621.84;4985524;28;20202;-75
2022/03/14 10:19:34;;;;;;;23.13;16.13;;;;;;;6.38;46.92;102629.19;4989505;28;20034;-74
2022/03/14 10:22:18;;;;;;;22.95;17.92;;;;;;;6.54;46.80;102621.34;4988893;28;20494;-72
2022/03/14 10:24:44;;;;;;;23.38;16.13;;;;;;;7.11;45.81;102621.59;5001485;28;20116;-74
2022/03/14 10:27:12;;;;;;;23.85;17.25;;;;;;;7.49;45.41;102620.00;4981453;28;20430;-74
2022/03/14 10:29:37;;;;;;;28.73;15.38;;;;;;;7.01;46.88;102629.81;4974057;28;20038;-74
2022/03/14 10:32:30;;;;;;;23.75;16.17;;;;;;;6.58;46.63;102629.31;4981309;28;20406;-73
2022/03/14 10:35:03;;;;;;;22.95;17.50;;;;;;;5.99;46.70;102614.91;4981933;28;20034;-73
2022/03/14 10:37:29;;;;;;;31.42;17.80;;;;;;;6.59;45.89;102613.75;4982190;28;20038;-73
2022/03/14 10:40:02;;;;;;;28.33;17.13;;;;;;;6.27;47.01;102614.66;4979629;28;20062;-74
2022/03/14 10:42:37;;;;;;;25.02;18.77;;;;;;;6.61;45.06;102625.16;4980720;28;20109;-80
2022/03/14 10:45:09;;;;;;;26.10;17.90;;;;;;;7.15;45.84;102613.13;5007335;28;20038;-75
2022/03/14 10:47:35;;;;;;;21.33;15.55;;;;;;;6.90;44.41;102620.53;4988176;28;20104;-72
2022/03/14 10:50:00;;;;;;;20.73;15.65;;;;;;;7.40;43.14;102624.78;4988947;28;20471;-73
2022/03/14 10:52:25;;;;;;;26.65;16.05;;;;;;;7.71;42.55;102616.69;4998041;28;20843;-73
2022/03/14 10:54:51;;;;;;;19.40;14.48;;;;;;;6.73;43.15;102614.47;4973010;28;20043;-73
2022/03/14 10:57:25;;;;;;;24.58;17.27;;;;;;;7.93;42.55;102612.47;4968357;28;20463;-74
2022/03/14 10:59:54;;;;;;;22.67;16.50;;;;;;;8.27;41.89;102614.00;4982056;28;20034;-75
2022/03/14 11:02:23;;;;;;;18.50;16.15;;;;;;;8.15;42.21;102607.41;4984784;28;20440;-75
2022/03/14 11:04:55;;;;;;;21.77;15.82;;;;;;;8.32;41.33;102605.53;4988796;28;20137;-75
2022/03/14 11:07:25;;;;;;;21.90;14.57;;;;;;;8.47;41.09;102597.50;4992868;28;20046;-75
2022/03/14 11:09:53;;;;;;;33.78;17.08;;;;;;;8.32;41.05;102588.94;4988613;28;20070;-73
2022/03/14 11:12:21;;;;;;;18.75;16.08;;;;;;;8.02;40.97;102595.47;4980612;28;20043;-73
2022/03/14 11:14:54;;;;;;;23.20;16.05;;;;;;;7.65;41.11;102590.25;4986039;28;20038;-74
2022/03/14 11:17:23;;;;;;;25.23;22.45;;;;;;;7.93;42.45;102583.69;4978195;28;20053;-73
2022/03/14 11:19:49;;;;;;;22.20;16.17;;;;;;;7.23;42.03;102587.38;4994005;28;20030;-75
2022/03/14 11:22:16;;;;;;;20.05;15.55;;;;;;;7.79;41.55;102589.19;4992809;28;20109;-73
2022/03/14 11:24:45;;;;;;;21.13;15.30;;;;;;;7.99;41.04;102589.22;4996244;28;20534;-73
2022/03/14 11:27:16;;;;;;;24.58;17.00;;;;;;;8.53;40.90;102576.84;4985811;28;20050;-73
2022/03/14 11:29:43;;;;;;;20.75;16.10;;;;;;;8.63;40.02;102578.13;4977560;28;20432;-74
2022/03/14 11:32:09;;;;;;;25.30;15.95;;;;;;;8.86;39.67;102568.63;4969184;28;20463;-74
2022/03/14 11:34:36;;;;;;;23.88;17.63;;;;;;;8.82;40.46;102570.22;4985343;28;20038;-73
2022/03/14 11:37:02;;;;;;;26.63;16.88;;;;;;;8.12;41.15;102580.19;4985788;28;20503;-72
2022/03/14 11:39:28;;;;;;;22.73;16.58;;;;;;;7.43;41.67;102577.91;4972045;28;20416;-73
2022/03/14 11:41:59;;;;;;;22.65;16.58;;;;;;;7.57;42.82;102570.72;4969153;28;20047;-72
2022/03/14 11:44:26;;;;;;;22.85;17.33;;;;;;;7.48;42.50;102557.22;4977105;28;20069;-74
2022/03/14 11:46:53;;;;;;;21.10;17.35;;;;;;;7.26;42.56;102561.44;4980125;28;20134;-74
2022/03/14 11:49:19;;;;;;;20.23;15.90;;;;;;;7.55;43.05;102574.97;4998965;28;20049;-74
2022/03/14 11:51:45;;;;;;;23.90;17.60;;;;;;;7.19;42.81;102549.78;4981631;28;20110;-73
2022/03/14 11:54:12;;;;;;;25.25;16.65;;;;;;;6.95;42.07;102559.94;4971025;28;20051;-74
2022/03/14 11:56:38;;;;;;;26.85;16.27;;;;;;;7.19;41.96;102565.47;4979634;28;20135;-75
2022/03/14 11:59:09;;;;;;;20.48;17.58;;;;;;;7.95;41.05;102564.66;4976991;28;20478;-72
2022/03/14 12:01:47;;;;;;;26.05;18.95;;;;;;;8.02;40.53;102540.56;4979830;28;20044;-74
2022/03/14 12:04:37;;;;;;;22.05;18.38;;;;;;;7.26;41.30;102563.13;4987506;28;20090;-75
2022/03/14 12:07:03;;;;;;;24.15;18.85;;;;;;;7.86;41.94;102558.09;4986549;28;20042;-75
2022/03/14 12:09:34;;;;;;;24.38;21.05;;;;;;;8.31;40.46;102555.75;4984225;28;20478;-73
2022/03/14 12:12:20;;;;;;;21.17;17.58;;;;;;;8.38;40.82;102557.81;4979978;28;20046;-73
2022/03/14 12:14:54;;;;;;;23.35;17.50;;;;;;;6.90;41.75;102555.28;4975738;28;20104;-73
2022/03/14 12:17:19;;;;;;;25.33;19.55;;;;;;;7.90;41.93;102554.81;4984516;28;20357;-73
2022/03/14 12:19:49;;;;;;;26.40;17.70;;;;;;;8.53;40.38;102555.91;4972728;28;20491;-74
2022/03/14 12:22:35;;;;;;;42.28;18.20;;;;;;;8.16;41.83;102541.19;4984235;28;20054;-74
2022/03/14 12:25:01;;;;;;;26.77;19.95;;;;;;;8.36;41.42;102551.66;4978520;28;20096;-73
2022/03/14 12:27:37;;;;;;;27.85;19.85;;;;;;;8.56;40.80;102537.72;4983491;28;20074;-74
2022/03/14 12:30:15;;;;;;;21.25;18.60;;;;;;;8.35;40.78;102542.88;4980535;28;20062;-74
2022/03/14 12:32:49;;;;;;;26.38;20.30;;;;;;;8.76;40.31;102535.94;4982551;28;20390;-75
2022/03/14 12:35:18;;;;;;;22.77;19.15;;;;;;;9.00;40.35;102537.78;4990317;28;20124;-75
2022/03/14 12:37:56;;;;;;;24.42;19.00;;;;;;;8.99;40.18;102534.28;4985906;28;20080;-75
2022/03/14 12:40:24;;;;;;;26.75;18.50;;;;;;;8.11;40.07;102537.47;4980171;28;20046;-73
2022/03/14 12:42:55;;;;;;;23.00;18.73;;;;;;;8.47;40.23;102525.97;4985317;28;20046;-74
2022/03/14 12:45:42;;;;;;;27.17;18.75;;;;;;;8.68;39.68;102533.84;5000177;28;20189;-74
2022/03/14 12:48:14;;;;;;;23.35;18.33;;;;;;;8.75;39.15;102544.63;4991084;28;20368;-74
2022/03/14 12:50:42;;;;;;;22.42;18.00;;;;;;;7.81;40.42;102548.34;4990907;28;20042;-74
2022/03/14 12:53:14;;;;;;;27.40;19.80;;;;;;;8.45;39.96;102526.81;4990973;28;20035;-74
2022/03/14 12:55:50;;;;;;;25.42;20.15;;;;;;;9.01;39.67;102536.94;4987189;28;20091;-75
2022/03/14 12:58:27;;;;;;;25.80;20.60;;;;;;;8.69;39.25;102533.91;4986880;28;20050;-74
2022/03/14 13:00:57;;;;;;;28.13;20.45;;;;;;;8.42;39.17;102520.53;4972828;28;20050;-75
2022/03/14 13:03:34;;;;;;;25.05;19.48;;;;;;;8.85;40.39;102519.75;4985732;28;20078;-75
2022/03/14 13:06:01;;;;;;;24.65;20.17;;;;;;;8.84;39.11;102531.91;4990030;28;20361;-74
2022/03/14 13:08:28;;;;;;;22.58;17.83;;;;;;;8.25;39.92;102528.50;4977994;28;20039;-74
2022/03/14 13:11:00;;;;;;;28.13;20.73;;;;;;;8.58;40.17;102524.72;4988998;28;20046;-74
2022/03/14 13:13:33;;;;;;;27.55;19.60;;;;;;;8.88;39.15;102519.84;5010383;28;20048;-74
2022/03/14 13:16:10;;;;;;;23.58;19.88;;;;;;;9.07;40.22;102521.50;4993116;28;20141;-75
2022/03/14 13:18:39;;;;;;;25.08;20.38;;;;;;;9.78;38.34;102518.97;4993024;28;20054;-74
2022/03/14 13:21:14;;;;;;;32.40;20.13;;;;;;;9.47;38.71;102516.09;4992572;28;20041;-74